Radar is unstable, so pay attention to the date and time in the image

Latest  Newer  Older  Last 2 hours animation  Current image  Latest image  Summary per 24h (testing)  Summary per 7d (testing) 
Cloud coverage sat images  Infrared sat images 
Real-time lightning map

All time is UTC (add 2 hours in wintertime, 3 hours in DST for Latvia local time)

2020/01/24 12:50 EVRA 241250Z 26006KT 190V310 9999 OVC015 07/05 Q1005 R18/290195 NOSIG
2020/01/24 12:50 EVLA 241250Z AUTO 26014KT 9999 -RA SCT007/// BKN043/// OVC049/// 06/06 Q1009
2020/01/24 12:50 EVVA 241250Z AUTO 26016KT 9999 FEW024 07/05 Q1006
2020/01/24 12:50 EYKA 241250Z 25015KT 6000 -DZ OVC006 04/03 Q1011 R08/290095
2020/01/24 12:50 EYPA 241250Z 27008G18KT 210V320 9999 OVC009 06/05 Q1011 R19/2///95
2020/01/24 12:50 EYSA 241250Z 25013KT 4500 -RA BR FEW006 OVC008 05/05 Q1009 R14L/29//95 R14R/29//95 GRN BECMG BKN006 YLO
2020/01/24 12:50 EYVI 241250Z 26014KT 230V290 9999 -DZ OVC004 03/03 Q1011 R19/2/0195 NOSIG
2020/01/24 11:50 EEKA 241150Z 27010KT 230V320 9999 BKN011 06/03 Q1001
2020/01/24 11:50 EEKE 241150Z 27011G23KT 220V320 9999 OVC013 07/05 Q1003 R17/150095
2020/01/24 11:50 EEPU 241150Z 22010KT 9999 OVC013 06/04 Q1001
2020/01/24 12:50 EETN 241250Z 27015KT 9999 BKN011 OVC044 05/03 Q0999 R08/290195 TEMPO SCT015CB
2020/01/24 11:50 EETU 241150Z 26017KT 9999 OVC013 05/03 Q1000
   RIGA AIRPORT     EVRA               56 55N  023 58E   10   X     T          6 LV
   LIEPAJA INTL     EVLA        26406  56 31N  021 06E    4   X                8 LV
   VENTPILS         EVVA               57 21N  021 33E    6   X                8 LV
   KAUNAS           EYKA               54 54N  023 55E   77   X     T          6 LT
   PALANGA INTL     EYPA               55 55N  021 03E   10   X                6 LT
   SIAULIAI INTL    EYSA               55 54N  023 24E  135   X     T          6 LT
   VILNIUS INTL     EYVI        26730  54 38N  025 17E  197   X     T          6 LT
   KARDLA           EEKA        26116  58 59N  022 50E    4   X                8 EE
   KURESSAARE       EEKE               58 14N  022 31E    4   X                8 EE
   PARNU            EEPU               58 25N  024 28E   14   X                8 EE
   TALLINN          EETN        26038  59 24N  024 49E   40   X     T          8 EE
   TARTU            EETU               58 19N  026 41E   67   X                8 EE

rain/snow radar image from www.meteo.lv and METAR data from weather.noaa.gov